Terminal Aerodrome Forecast
Issued by NWS Paducah, KY

Home | Current Version | Previous Version | Text Only | Print | Product List | Glossary On
Versions: 1 2 3 4 5 6 7 8 9 10 11 12 13 14 15 16 17 18 19 20 21 22 23
000
FTUS43 KPAH 241700 RRA
TAFPAH
TAF
KPAH 241747Z 2418/2518 25008KT P6SM SKC
     FM250000 22004KT P6SM BKN200
     FM251500 21009KT 4SM -RA BR BKN015 OVC050=

USA.gov is the U.S. government's official web portal to all federal, state and local government web resources and services.